Terminal Aerodrome Forecast
Issued by NWS

Home | Current Version | Previous Version | Text Only | Print | Product List | Glossary On
Versions: 1 2 3 4 5 6 7 8 9 10 11 12 13 14 15 16 17
600
FTUS41 KBGM 231720
TAFELM
TAF
KELM 231720Z 2318/2418 25004KT P6SM SCT250
     FM240500 VRB02KT P6SM BKN120
     FM240700 17005KT P6SM BKN050 OVC100
     FM241000 18005KT 5SM -FZRAPL OVC025
     FM241600 17008KT 5SM -RA BR OVC015=

USA.gov is the U.S. government's official web portal to all federal, state and local government web resources and services.